sensor_id;sensor_type;location;lat;lon;timestamp;P1;durP1;ratioP1;P2;durP2;ratioP2
17864;SDS011;9058;52.018;4.202;2023-06-26T00:00:43;7.90;;;4.78;;
17864;SDS011;9058;52.018;4.202;2023-06-26T00:03:12;6.30;;;4.45;;
17864;SDS011;9058;52.018;4.202;2023-06-26T00:05:40;8.20;;;4.53;;
17864;SDS011;9058;52.018;4.202;2023-06-26T00:08:06;8.80;;;4.80;;
17864;SDS011;9058;52.018;4.202;2023-06-26T00:10:33;6.45;;;4.78;;
17864;SDS011;9058;52.018;4.202;2023-06-26T00:13:00;9.48;;;4.80;;
17864;SDS011;9058;52.018;4.202;2023-06-26T00:15:29;9.48;;;5.05;;
17864;SDS011;9058;52.018;4.202;2023-06-26T00:17:56;10.07;;;5.00;;
17864;SDS011;9058;52.018;4.202;2023-06-26T00:20:23;10.00;;;5.45;;
17864;SDS011;9058;52.018;4.202;2023-06-26T00:22:50;11.57;;;5.25;;
17864;SDS011;9058;52.018;4.202;2023-06-26T00:25:16;10.60;;;4.30;;
17864;SDS011;9058;52.018;4.202;2023-06-26T00:27:42;8.77;;;4.80;;
17864;SDS011;9058;52.018;4.202;2023-06-26T00:30:09;8.38;;;4.80;;
17864;SDS011;9058;52.018;4.202;2023-06-26T00:32:37;7.72;;;4.32;;
17864;SDS011;9058;52.018;4.202;2023-06-26T00:35:04;11.77;;;4.85;;
17864;SDS011;9058;52.018;4.202;2023-06-26T00:37:30;14.45;;;5.05;;
17864;SDS011;9058;52.018;4.202;2023-06-26T00:39:58;9.50;;;4.70;;
17864;SDS011;9058;52.018;4.202;2023-06-26T00:42:25;11.65;;;4.60;;
17864;SDS011;9058;52.018;4.202;2023-06-26T00:44:52;8.95;;;4.95;;
17864;SDS011;9058;52.018;4.202;2023-06-26T00:47:20;10.38;;;4.28;;
17864;SDS011;9058;52.018;4.202;2023-06-26T00:49:48;10.90;;;4.88;;
17864;SDS011;9058;52.018;4.202;2023-06-26T00:52:14;13.90;;;4.90;;
17864;SDS011;9058;52.018;4.202;2023-06-26T00:54:41;11.35;;;4.53;;
17864;SDS011;9058;52.018;4.202;2023-06-26T00:57:08;16.48;;;5.35;;
17864;SDS011;9058;52.018;4.202;2023-06-26T00:59:35;11.43;;;5.05;;
17864;SDS011;9058;52.018;4.202;2023-06-26T01:02:03;12.27;;;4.97;;
17864;SDS011;9058;52.018;4.202;2023-06-26T01:04:31;12.43;;;5.05;;
17864;SDS011;9058;52.018;4.202;2023-06-26T01:06:59;13.90;;;4.95;;
17864;SDS011;9058;52.018;4.202;2023-06-26T01:09:27;13.82;;;4.97;;
17864;SDS011;9058;52.018;4.202;2023-06-26T01:11:55;11.57;;;5.25;;
17864;SDS011;9058;52.018;4.202;2023-06-26T01:14:23;13.57;;;5.70;;
17864;SDS011;9058;52.018;4.202;2023-06-26T01:16:50;9.65;;;4.25;;
17864;SDS011;9058;52.018;4.202;2023-06-26T01:19:19;17.58;;;5.93;;
17864;SDS011;9058;52.018;4.202;2023-06-26T01:21:51;14.95;;;4.68;;
17864;SDS011;9058;52.018;4.202;2023-06-26T01:24:19;14.75;;;5.72;;
17864;SDS011;9058;52.018;4.202;2023-06-26T01:26:53;12.52;;;4.50;;
17864;SDS011;9058;52.018;4.202;2023-06-26T01:29:20;11.23;;;5.07;;
17864;SDS011;9058;52.018;4.202;2023-06-26T01:31:48;18.35;;;6.22;;
17864;SDS011;9058;52.018;4.202;2023-06-26T01:34:15;15.90;;;5.50;;
17864;SDS011;9058;52.018;4.202;2023-06-26T01:36:43;14.35;;;5.25;;
17864;SDS011;9058;52.018;4.202;2023-06-26T01:39:10;13.40;;;6.10;;
17864;SDS011;9058;52.018;4.202;2023-06-26T01:41:37;17.70;;;5.80;;
17864;SDS011;9058;52.018;4.202;2023-06-26T01:44:09;14.25;;;6.28;;
17864;SDS011;9058;52.018;4.202;2023-06-26T01:46:39;14.50;;;5.97;;
17864;SDS011;9058;52.018;4.202;2023-06-26T01:49:07;12.90;;;5.32;;
17864;SDS011;9058;52.018;4.202;2023-06-26T01:51:38;12.80;;;5.40;;
17864;SDS011;9058;52.018;4.202;2023-06-26T01:54:05;18.50;;;5.95;;
17864;SDS011;9058;52.018;4.202;2023-06-26T01:56:32;13.05;;;5.65;;
17864;SDS011;9058;52.018;4.202;2023-06-26T01:59:00;12.80;;;5.40;;
17864;SDS011;9058;52.018;4.202;2023-06-26T02:01:32;21.48;;;5.93;;
17864;SDS011;9058;52.018;4.202;2023-06-26T02:04:00;17.63;;;6.07;;
17864;SDS011;9058;52.018;4.202;2023-06-26T02:06:27;18.98;;;5.68;;
17864;SDS011;9058;52.018;4.202;2023-06-26T02:08:53;14.68;;;6.15;;
17864;SDS011;9058;52.018;4.202;2023-06-26T02:11:21;16.35;;;5.88;;
17864;SDS011;9058;52.018;4.202;2023-06-26T02:13:48;18.60;;;6.15;;
17864;SDS011;9058;52.018;4.202;2023-06-26T02:16:14;16.27;;;6.18;;
17864;SDS011;9058;52.018;4.202;2023-06-26T02:18:42;15.63;;;6.10;;
17864;SDS011;9058;52.018;4.202;2023-06-26T02:21:08;17.83;;;5.38;;
17864;SDS011;9058;52.018;4.202;2023-06-26T02:23:35;20.67;;;7.13;;
17864;SDS011;9058;52.018;4.202;2023-06-26T02:26:03;21.90;;;6.78;;
17864;SDS011;9058;52.018;4.202;2023-06-26T02:28:29;20.15;;;6.75;;
17864;SDS011;9058;52.018;4.202;2023-06-26T02:30:56;23.40;;;6.55;;
17864;SDS011;9058;52.018;4.202;2023-06-26T02:33:23;20.88;;;6.80;;
17864;SDS011;9058;52.018;4.202;2023-06-26T02:35:50;24.23;;;6.82;;
17864;SDS011;9058;52.018;4.202;2023-06-26T02:38:17;19.95;;;6.53;;
17864;SDS011;9058;52.018;4.202;2023-06-26T02:40:43;22.55;;;7.47;;
17864;SDS011;9058;52.018;4.202;2023-06-26T02:43:10;22.02;;;6.97;;
17864;SDS011;9058;52.018;4.202;2023-06-26T02:45:36;18.95;;;6.90;;
17864;SDS011;9058;52.018;4.202;2023-06-26T02:48:03;17.48;;;6.07;;
17864;SDS011;9058;52.018;4.202;2023-06-26T02:50:30;20.27;;;6.35;;
17864;SDS011;9058;52.018;4.202;2023-06-26T02:52:58;18.73;;;7.20;;
17864;SDS011;9058;52.018;4.202;2023-06-26T02:55:25;20.55;;;6.47;;
17864;SDS011;9058;52.018;4.202;2023-06-26T02:57:51;16.40;;;6.45;;
17864;SDS011;9058;52.018;4.202;2023-06-26T03:00:18;20.00;;;6.75;;
17864;SDS011;9058;52.018;4.202;2023-06-26T03:02:44;13.30;;;5.88;;
17864;SDS011;9058;52.018;4.202;2023-06-26T03:05:11;13.30;;;6.03;;
17864;SDS011;9058;52.018;4.202;2023-06-26T03:07:38;16.02;;;6.05;;
17864;SDS011;9058;52.018;4.202;2023-06-26T03:10:06;18.08;;;5.82;;
17864;SDS011;9058;52.018;4.202;2023-06-26T03:12:33;23.08;;;6.22;;
17864;SDS011;9058;52.018;4.202;2023-06-26T03:15:00;17.55;;;6.47;;
17864;SDS011;9058;52.018;4.202;2023-06-26T03:17:27;18.33;;;5.53;;
17864;SDS011;9058;52.018;4.202;2023-06-26T03:19:53;17.17;;;5.68;;
17864;SDS011;9058;52.018;4.202;2023-06-26T03:22:20;17.10;;;5.55;;
17864;SDS011;9058;52.018;4.202;2023-06-26T03:24:46;17.17;;;5.65;;
17864;SDS011;9058;52.018;4.202;2023-06-26T03:27:14;17.70;;;5.70;;
17864;SDS011;9058;52.018;4.202;2023-06-26T03:29:40;14.65;;;4.95;;
17864;SDS011;9058;52.018;4.202;2023-06-26T03:32:07;18.45;;;5.53;;
17864;SDS011;9058;52.018;4.202;2023-06-26T03:34:34;18.27;;;5.65;;
17864;SDS011;9058;52.018;4.202;2023-06-26T03:37:01;12.45;;;4.88;;
17864;SDS011;9058;52.018;4.202;2023-06-26T03:39:28;13.95;;;4.68;;
17864;SDS011;9058;52.018;4.202;2023-06-26T03:41:55;12.60;;;4.50;;
17864;SDS011;9058;52.018;4.202;2023-06-26T03:44:26;15.95;;;5.18;;
17864;SDS011;9058;52.018;4.202;2023-06-26T03:46:53;13.27;;;4.32;;
17864;SDS011;9058;52.018;4.202;2023-06-26T03:49:20;11.70;;;4.60;;
17864;SDS011;9058;52.018;4.202;2023-06-26T03:51:47;9.60;;;4.18;;
17864;SDS011;9058;52.018;4.202;2023-06-26T03:54:13;11.93;;;4.90;;
17864;SDS011;9058;52.018;4.202;2023-06-26T03:56:40;9.90;;;4.38;;
17864;SDS011;9058;52.018;4.202;2023-06-26T03:59:06;12.20;;;4.30;;
17864;SDS011;9058;52.018;4.202;2023-06-26T04:01:34;10.60;;;4.30;;
17864;SDS011;9058;52.018;4.202;2023-06-26T04:04:02;8.27;;;4.45;;
17864;SDS011;9058;52.018;4.202;2023-06-26T04:06:28;12.32;;;4.70;;
17864;SDS011;9058;52.018;4.202;2023-06-26T04:08:56;9.98;;;4.35;;
17864;SDS011;9058;52.018;4.202;2023-06-26T04:11:22;11.85;;;4.60;;
17864;SDS011;9058;52.018;4.202;2023-06-26T04:13:49;15.27;;;4.90;;
17864;SDS011;9058;52.018;4.202;2023-06-26T04:16:15;11.52;;;4.50;;
17864;SDS011;9058;52.018;4.202;2023-06-26T04:18:43;12.68;;;4.65;;
17864;SDS011;9058;52.018;4.202;2023-06-26T04:21:10;8.63;;;4.68;;
17864;SDS011;9058;52.018;4.202;2023-06-26T04:23:37;7.03;;;4.15;;
17864;SDS011;9058;52.018;4.202;2023-06-26T04:26:04;11.20;;;5.28;;
17864;SDS011;9058;52.018;4.202;2023-06-26T04:28:31;11.55;;;4.80;;
17864;SDS011;9058;52.018;4.202;2023-06-26T04:30:57;9.60;;;4.22;;
17864;SDS011;9058;52.018;4.202;2023-06-26T04:33:24;8.63;;;3.90;;
17864;SDS011;9058;52.018;4.202;2023-06-26T04:35:52;11.00;;;4.20;;
17864;SDS011;9058;52.018;4.202;2023-06-26T04:38:18;10.00;;;4.25;;
17864;SDS011;9058;52.018;4.202;2023-06-26T04:40:45;9.77;;;4.43;;
17864;SDS011;9058;52.018;4.202;2023-06-26T04:43:13;11.15;;;4.28;;
17864;SDS011;9058;52.018;4.202;2023-06-26T04:45:39;11.25;;;4.05;;
17864;SDS011;9058;52.018;4.202;2023-06-26T04:48:06;9.13;;;3.95;;
17864;SDS011;9058;52.018;4.202;2023-06-26T04:50:34;9.45;;;4.00;;
17864;SDS011;9058;52.018;4.202;2023-06-26T04:53:01;9.23;;;3.83;;
17864;SDS011;9058;52.018;4.202;2023-06-26T04:55:28;9.23;;;3.42;;
17864;SDS011;9058;52.018;4.202;2023-06-26T04:57:55;9.07;;;2.72;;
17864;SDS011;9058;52.018;4.202;2023-06-26T05:00:22;6.88;;;3.17;;
17864;SDS011;9058;52.018;4.202;2023-06-26T05:02:49;4.13;;;2.20;;
17864;SDS011;9058;52.018;4.202;2023-06-26T05:05:24;4.95;;;2.00;;
17864;SDS011;9058;52.018;4.202;2023-06-26T05:07:52;4.65;;;1.88;;
17864;SDS011;9058;52.018;4.202;2023-06-26T05:10:20;5.78;;;1.42;;
17864;SDS011;9058;52.018;4.202;2023-06-26T05:12:46;4.70;;;1.80;;
17864;SDS011;9058;52.018;4.202;2023-06-26T05:15:13;7.20;;;1.83;;
17864;SDS011;9058;52.018;4.202;2023-06-26T05:17:39;9.82;;;2.10;;
17864;SDS011;9058;52.018;4.202;2023-06-26T05:20:06;4.40;;;1.40;;
17864;SDS011;9058;52.018;4.202;2023-06-26T05:22:33;5.13;;;1.42;;
17864;SDS011;9058;52.018;4.202;2023-06-26T05:25:03;4.15;;;1.30;;
17864;SDS011;9058;52.018;4.202;2023-06-26T05:27:32;6.82;;;1.55;;
17864;SDS011;9058;52.018;4.202;2023-06-26T05:29:59;10.15;;;2.03;;
17864;SDS011;9058;52.018;4.202;2023-06-26T05:32:25;6.22;;;1.50;;
17864;SDS011;9058;52.018;4.202;2023-06-26T05:34:53;6.95;;;1.80;;
17864;SDS011;9058;52.018;4.202;2023-06-26T05:37:21;4.22;;;1.70;;
17864;SDS011;9058;52.018;4.202;2023-06-26T05:39:48;8.18;;;1.88;;
17864;SDS011;9058;52.018;4.202;2023-06-26T05:42:16;4.85;;;1.92;;
17864;SDS011;9058;52.018;4.202;2023-06-26T05:44:44;5.85;;;2.03;;
17864;SDS011;9058;52.018;4.202;2023-06-26T05:47:11;6.70;;;1.77;;
17864;SDS011;9058;52.018;4.202;2023-06-26T05:49:37;4.07;;;1.88;;
17864;SDS011;9058;52.018;4.202;2023-06-26T05:52:05;7.07;;;1.85;;
17864;SDS011;9058;52.018;4.202;2023-06-26T05:54:33;5.22;;;1.70;;
17864;SDS011;9058;52.018;4.202;2023-06-26T05:57:00;4.80;;;1.80;;
17864;SDS011;9058;52.018;4.202;2023-06-26T05:59:26;5.25;;;1.70;;
17864;SDS011;9058;52.018;4.202;2023-06-26T06:01:55;4.57;;;1.25;;
17864;SDS011;9058;52.018;4.202;2023-06-26T06:04:22;9.70;;;2.00;;
17864;SDS011;9058;52.018;4.202;2023-06-26T06:06:48;5.32;;;1.70;;
17864;SDS011;9058;52.018;4.202;2023-06-26T06:09:16;6.00;;;1.33;;
17864;SDS011;9058;52.018;4.202;2023-06-26T06:11:42;4.57;;;1.45;;
17864;SDS011;9058;52.018;4.202;2023-06-26T06:14:09;6.22;;;2.10;;
17864;SDS011;9058;52.018;4.202;2023-06-26T06:16:36;6.05;;;1.50;;
17864;SDS011;9058;52.018;4.202;2023-06-26T06:19:03;5.38;;;1.83;;
17864;SDS011;9058;52.018;4.202;2023-06-26T06:21:32;4.90;;;1.33;;
17864;SDS011;9058;52.018;4.202;2023-06-26T06:23:58;7.97;;;1.60;;
17864;SDS011;9058;52.018;4.202;2023-06-26T06:26:26;4.18;;;1.50;;
17864;SDS011;9058;52.018;4.202;2023-06-26T06:28:52;4.82;;;1.55;;
17864;SDS011;9058;52.018;4.202;2023-06-26T06:31:20;4.20;;;1.33;;
17864;SDS011;9058;52.018;4.202;2023-06-26T06:33:46;6.18;;;1.63;;
17864;SDS011;9058;52.018;4.202;2023-06-26T06:36:14;6.80;;;1.42;;
17864;SDS011;9058;52.018;4.202;2023-06-26T06:38:42;6.60;;;1.58;;
17864;SDS011;9058;52.018;4.202;2023-06-26T06:41:08;5.38;;;1.77;;
17864;SDS011;9058;52.018;4.202;2023-06-26T06:43:35;5.80;;;1.85;;
17864;SDS011;9058;52.018;4.202;2023-06-26T06:46:03;7.45;;;1.73;;
17864;SDS011;9058;52.018;4.202;2023-06-26T06:48:31;10.70;;;1.80;;
17864;SDS011;9058;52.018;4.202;2023-06-26T06:50:57;6.30;;;1.63;;
17864;SDS011;9058;52.018;4.202;2023-06-26T06:53:26;3.47;;;1.50;;
17864;SDS011;9058;52.018;4.202;2023-06-26T06:55:52;5.20;;;1.70;;
17864;SDS011;9058;52.018;4.202;2023-06-26T06:58:19;5.25;;;1.50;;
17864;SDS011;9058;52.018;4.202;2023-06-26T07:00:46;5.75;;;1.48;;
17864;SDS011;9058;52.018;4.202;2023-06-26T07:03:12;7.30;;;1.42;;
17864;SDS011;9058;52.018;4.202;2023-06-26T07:05:40;4.00;;;1.30;;
17864;SDS011;9058;52.018;4.202;2023-06-26T07:08:07;5.10;;;1.48;;
17864;SDS011;9058;52.018;4.202;2023-06-26T07:10:35;9.48;;;2.05;;
17864;SDS011;9058;52.018;4.202;2023-06-26T07:13:02;4.65;;;1.20;;
17864;SDS011;9058;52.018;4.202;2023-06-26T07:15:28;6.32;;;1.40;;
17864;SDS011;9058;52.018;4.202;2023-06-26T07:17:55;5.25;;;1.30;;
17864;SDS011;9058;52.018;4.202;2023-06-26T07:20:21;5.13;;;1.48;;
17864;SDS011;9058;52.018;4.202;2023-06-26T07:22:49;5.03;;;1.50;;
17864;SDS011;9058;52.018;4.202;2023-06-26T07:25:15;5.30;;;1.30;;
17864;SDS011;9058;52.018;4.202;2023-06-26T07:27:43;6.10;;;1.98;;
17864;SDS011;9058;52.018;4.202;2023-06-26T07:30:10;4.97;;;1.42;;
17864;SDS011;9058;52.018;4.202;2023-06-26T07:32:37;4.35;;;1.38;;
17864;SDS011;9058;52.018;4.202;2023-06-26T07:35:03;4.15;;;1.38;;
17864;SDS011;9058;52.018;4.202;2023-06-26T07:37:30;8.45;;;1.70;;
17864;SDS011;9058;52.018;4.202;2023-06-26T07:39:57;5.22;;;1.45;;
17864;SDS011;9058;52.018;4.202;2023-06-26T07:42:23;5.55;;;1.50;;
17864;SDS011;9058;52.018;4.202;2023-06-26T07:44:52;3.13;;;1.52;;
17864;SDS011;9058;52.018;4.202;2023-06-26T07:47:19;7.88;;;1.95;;
17864;SDS011;9058;52.018;4.202;2023-06-26T07:49:45;10.77;;;1.60;;
17864;SDS011;9058;52.018;4.202;2023-06-26T07:52:11;4.85;;;1.45;;
17864;SDS011;9058;52.018;4.202;2023-06-26T07:54:40;4.45;;;1.70;;
17864;SDS011;9058;52.018;4.202;2023-06-26T07:57:06;6.30;;;1.83;;
17864;SDS011;9058;52.018;4.202;2023-06-26T07:59:33;5.78;;;1.52;;
17864;SDS011;9058;52.018;4.202;2023-06-26T08:02:03;6.35;;;1.67;;
17864;SDS011;9058;52.018;4.202;2023-06-26T08:04:30;7.40;;;1.52;;
17864;SDS011;9058;52.018;4.202;2023-06-26T08:06:57;5.35;;;1.52;;
17864;SDS011;9058;52.018;4.202;2023-06-26T08:09:25;5.65;;;1.38;;
17864;SDS011;9058;52.018;4.202;2023-06-26T08:11:52;4.82;;;1.30;;
17864;SDS011;9058;52.018;4.202;2023-06-26T08:14:18;4.80;;;1.42;;
17864;SDS011;9058;52.018;4.202;2023-06-26T08:16:45;5.70;;;1.50;;
17864;SDS011;9058;52.018;4.202;2023-06-26T08:19:13;7.55;;;2.20;;
17864;SDS011;9058;52.018;4.202;2023-06-26T08:21:40;9.05;;;1.80;;
17864;SDS011;9058;52.018;4.202;2023-06-26T08:24:06;7.78;;;1.75;;
17864;SDS011;9058;52.018;4.202;2023-06-26T08:26:33;8.98;;;2.08;;
17864;SDS011;9058;52.018;4.202;2023-06-26T08:28:59;6.20;;;1.73;;
17864;SDS011;9058;52.018;4.202;2023-06-26T08:31:26;4.78;;;1.40;;
17864;SDS011;9058;52.018;4.202;2023-06-26T08:33:52;7.78;;;1.98;;
17864;SDS011;9058;52.018;4.202;2023-06-26T08:36:20;4.03;;;1.50;;
17864;SDS011;9058;52.018;4.202;2023-06-26T08:38:46;5.70;;;1.50;;
17864;SDS011;9058;52.018;4.202;2023-06-26T08:41:13;5.75;;;1.73;;
17864;SDS011;9058;52.018;4.202;2023-06-26T08:43:39;6.18;;;1.75;;
17864;SDS011;9058;52.018;4.202;2023-06-26T08:46:07;5.57;;;1.50;;
17864;SDS011;9058;52.018;4.202;2023-06-26T08:48:34;5.25;;;2.03;;
17864;SDS011;9058;52.018;4.202;2023-06-26T08:51:03;4.65;;;2.30;;
17864;SDS011;9058;52.018;4.202;2023-06-26T08:53:36;10.52;;;2.50;;
17864;SDS011;9058;52.018;4.202;2023-06-26T08:56:05;8.77;;;1.80;;
17864;SDS011;9058;52.018;4.202;2023-06-26T08:58:33;5.60;;;1.90;;
17864;SDS011;9058;52.018;4.202;2023-06-26T09:01:01;8.65;;;1.92;;
17864;SDS011;9058;52.018;4.202;2023-06-26T09:03:28;9.43;;;1.95;;
17864;SDS011;9058;52.018;4.202;2023-06-26T09:05:55;6.72;;;2.03;;
17864;SDS011;9058;52.018;4.202;2023-06-26T09:08:21;4.93;;;1.63;;
17864;SDS011;9058;52.018;4.202;2023-06-26T09:10:50;7.45;;;2.45;;
17864;SDS011;9058;52.018;4.202;2023-06-26T09:13:18;8.40;;;2.00;;
17864;SDS011;9058;52.018;4.202;2023-06-26T09:15:45;7.80;;;1.80;;
17864;SDS011;9058;52.018;4.202;2023-06-26T09:18:11;3.08;;;1.90;;
17864;SDS011;9058;52.018;4.202;2023-06-26T09:20:38;10.35;;;2.70;;
17864;SDS011;9058;52.018;4.202;2023-06-26T09:23:04;5.05;;;1.45;;
17864;SDS011;9058;52.018;4.202;2023-06-26T09:25:31;7.00;;;1.60;;
17864;SDS011;9058;52.018;4.202;2023-06-26T09:27:59;6.05;;;1.70;;
17864;SDS011;9058;52.018;4.202;2023-06-26T09:30:25;4.22;;;1.50;;
17864;SDS011;9058;52.018;4.202;2023-06-26T09:32:53;9.13;;;1.85;;
17864;SDS011;9058;52.018;4.202;2023-06-26T09:35:21;3.70;;;1.60;;
17864;SDS011;9058;52.018;4.202;2023-06-26T09:37:47;4.32;;;1.70;;
17864;SDS011;9058;52.018;4.202;2023-06-26T09:40:14;9.82;;;1.75;;
17864;SDS011;9058;52.018;4.202;2023-06-26T09:42:41;7.70;;;1.98;;
17864;SDS011;9058;52.018;4.202;2023-06-26T09:45:12;5.00;;;1.50;;
17864;SDS011;9058;52.018;4.202;2023-06-26T09:47:44;5.20;;;1.42;;
17864;SDS011;9058;52.018;4.202;2023-06-26T09:50:20;7.05;;;2.83;;
17864;SDS011;9058;52.018;4.202;2023-06-26T09:52:46;7.80;;;1.77;;
17864;SDS011;9058;52.018;4.202;2023-06-26T09:55:14;5.07;;;1.45;;
17864;SDS011;9058;52.018;4.202;2023-06-26T09:57:40;6.72;;;1.85;;
17864;SDS011;9058;52.018;4.202;2023-06-26T10:00:08;4.82;;;1.73;;
17864;SDS011;9058;52.018;4.202;2023-06-26T10:02:36;7.35;;;1.85;;
17864;SDS011;9058;52.018;4.202;2023-06-26T10:05:02;5.55;;;1.75;;
17864;SDS011;9058;52.018;4.202;2023-06-26T10:07:29;3.88;;;1.30;;
17864;SDS011;9058;52.018;4.202;2023-06-26T10:09:55;9.30;;;1.80;;
17864;SDS011;9058;52.018;4.202;2023-06-26T10:12:25;5.57;;;1.55;;
17864;SDS011;9058;52.018;4.202;2023-06-26T10:14:53;6.18;;;1.80;;
17864;SDS011;9058;52.018;4.202;2023-06-26T10:17:20;6.45;;;2.00;;
17864;SDS011;9058;52.018;4.202;2023-06-26T10:19:49;4.25;;;1.83;;
17864;SDS011;9058;52.018;4.202;2023-06-26T10:22:16;5.18;;;1.80;;
17864;SDS011;9058;52.018;4.202;2023-06-26T10:24:44;5.05;;;1.85;;
17864;SDS011;9058;52.018;4.202;2023-06-26T10:27:15;4.18;;;1.80;;
17864;SDS011;9058;52.018;4.202;2023-06-26T10:29:42;4.97;;;1.60;;
17864;SDS011;9058;52.018;4.202;2023-06-26T10:32:10;4.72;;;1.42;;
17864;SDS011;9058;52.018;4.202;2023-06-26T10:34:38;4.15;;;1.45;;
17864;SDS011;9058;52.018;4.202;2023-06-26T10:37:06;2.58;;;1.55;;
17864;SDS011;9058;52.018;4.202;2023-06-26T10:39:45;5.90;;;1.42;;
17864;SDS011;9058;52.018;4.202;2023-06-26T10:42:12;8.57;;;1.85;;
17864;SDS011;9058;52.018;4.202;2023-06-26T10:44:40;2.88;;;1.25;;
17864;SDS011;9058;52.018;4.202;2023-06-26T10:47:08;4.88;;;1.65;;
17864;SDS011;9058;52.018;4.202;2023-06-26T10:49:37;5.20;;;1.73;;
17864;SDS011;9058;52.018;4.202;2023-06-26T10:52:06;5.05;;;1.60;;
17864;SDS011;9058;52.018;4.202;2023-06-26T10:54:32;4.18;;;1.70;;
17864;SDS011;9058;52.018;4.202;2023-06-26T10:56:59;5.38;;;1.73;;
17864;SDS011;9058;52.018;4.202;2023-06-26T10:59:27;4.75;;;1.73;;
17864;SDS011;9058;52.018;4.202;2023-06-26T11:01:56;5.97;;;2.00;;
17864;SDS011;9058;52.018;4.202;2023-06-26T11:04:39;6.22;;;1.77;;
17864;SDS011;9058;52.018;4.202;2023-06-26T11:07:16;8.68;;;2.38;;
17864;SDS011;9058;52.018;4.202;2023-06-26T11:09:53;5.28;;;1.77;;
17864;SDS011;9058;52.018;4.202;2023-06-26T11:12:33;8.43;;;2.08;;
17864;SDS011;9058;52.018;4.202;2023-06-26T11:15:00;3.40;;;1.50;;
17864;SDS011;9058;52.018;4.202;2023-06-26T11:17:27;6.43;;;1.98;;
17864;SDS011;9058;52.018;4.202;2023-06-26T11:19:54;7.43;;;1.88;;
17864;SDS011;9058;52.018;4.202;2023-06-26T11:22:22;3.15;;;1.65;;
17864;SDS011;9058;52.018;4.202;2023-06-26T11:24:52;3.25;;;1.67;;
17864;SDS011;9058;52.018;4.202;2023-06-26T11:27:19;5.30;;;1.70;;
17864;SDS011;9058;52.018;4.202;2023-06-26T11:29:48;6.72;;;2.00;;
17864;SDS011;9058;52.018;4.202;2023-06-26T11:32:15;13.07;;;2.17;;
17864;SDS011;9058;52.018;4.202;2023-06-26T11:34:42;5.60;;;1.77;;
17864;SDS011;9058;52.018;4.202;2023-06-26T11:37:09;6.05;;;1.95;;
17864;SDS011;9058;52.018;4.202;2023-06-26T11:39:38;5.25;;;1.75;;
17864;SDS011;9058;52.018;4.202;2023-06-26T11:42:04;6.13;;;2.10;;
17864;SDS011;9058;52.018;4.202;2023-06-26T11:44:31;4.45;;;1.77;;
17864;SDS011;9058;52.018;4.202;2023-06-26T11:46:58;6.65;;;2.05;;
17864;SDS011;9058;52.018;4.202;2023-06-26T11:49:24;9.13;;;1.95;;
17864;SDS011;9058;52.018;4.202;2023-06-26T11:51:52;5.90;;;2.00;;
17864;SDS011;9058;52.018;4.202;2023-06-26T11:54:23;5.90;;;1.80;;
17864;SDS011;9058;52.018;4.202;2023-06-26T11:56:53;2.97;;;1.60;;
17864;SDS011;9058;52.018;4.202;2023-06-26T11:59:21;4.57;;;2.20;;
17864;SDS011;9058;52.018;4.202;2023-06-26T12:01:49;6.53;;;2.25;;
17864;SDS011;9058;52.018;4.202;2023-06-26T12:04:16;8.68;;;1.70;;
17864;SDS011;9058;52.018;4.202;2023-06-26T12:06:46;6.50;;;2.20;;
17864;SDS011;9058;52.018;4.202;2023-06-26T12:09:13;5.10;;;1.83;;
17864;SDS011;9058;52.018;4.202;2023-06-26T12:11:40;6.88;;;1.70;;
17864;SDS011;9058;52.018;4.202;2023-06-26T12:14:09;4.65;;;2.00;;
17864;SDS011;9058;52.018;4.202;2023-06-26T12:16:36;3.40;;;2.03;;
17864;SDS011;9058;52.018;4.202;2023-06-26T12:19:03;9.82;;;2.00;;
17864;SDS011;9058;52.018;4.202;2023-06-26T12:21:43;8.85;;;2.17;;
17864;SDS011;9058;52.018;4.202;2023-06-26T12:24:12;2.45;;;1.60;;
17864;SDS011;9058;52.018;4.202;2023-06-26T12:26:41;5.32;;;2.08;;
17864;SDS011;9058;52.018;4.202;2023-06-26T12:29:12;8.60;;;2.30;;
17864;SDS011;9058;52.018;4.202;2023-06-26T12:31:39;5.28;;;1.92;;
17864;SDS011;9058;52.018;4.202;2023-06-26T12:34:08;7.85;;;1.80;;
17864;SDS011;9058;52.018;4.202;2023-06-26T12:36:39;9.73;;;2.75;;
17864;SDS011;9058;52.018;4.202;2023-06-26T12:39:08;4.47;;;2.00;;
17864;SDS011;9058;52.018;4.202;2023-06-26T12:41:43;6.18;;;1.83;;
17864;SDS011;9058;52.018;4.202;2023-06-26T12:44:17;9.57;;;2.17;;
17864;SDS011;9058;52.018;4.202;2023-06-26T12:46:46;5.30;;;2.05;;
17864;SDS011;9058;52.018;4.202;2023-06-26T12:49:13;7.13;;;2.10;;
17864;SDS011;9058;52.018;4.202;2023-06-26T12:51:40;8.48;;;2.33;;
17864;SDS011;9058;52.018;4.202;2023-06-26T12:54:08;6.28;;;2.10;;
17864;SDS011;9058;52.018;4.202;2023-06-26T12:56:36;6.75;;;2.17;;
17864;SDS011;9058;52.018;4.202;2023-06-26T12:59:03;9.68;;;2.40;;
17864;SDS011;9058;52.018;4.202;2023-06-26T13:01:31;13.65;;;3.00;;
17864;SDS011;9058;52.018;4.202;2023-06-26T13:03:57;5.65;;;1.90;;
17864;SDS011;9058;52.018;4.202;2023-06-26T13:06:24;9.70;;;2.00;;
17864;SDS011;9058;52.018;4.202;2023-06-26T13:08:51;6.95;;;1.92;;
17864;SDS011;9058;52.018;4.202;2023-06-26T13:11:18;5.22;;;2.05;;
17864;SDS011;9058;52.018;4.202;2023-06-26T13:13:46;5.95;;;2.13;;
17864;SDS011;9058;52.018;4.202;2023-06-26T13:16:14;6.10;;;1.77;;
17864;SDS011;9058;52.018;4.202;2023-06-26T13:18:44;8.63;;;2.10;;
17864;SDS011;9058;52.018;4.202;2023-06-26T13:21:12;5.18;;;2.17;;
17864;SDS011;9058;52.018;4.202;2023-06-26T13:23:38;7.53;;;2.25;;
17864;SDS011;9058;52.018;4.202;2023-06-26T13:26:05;6.43;;;2.10;;
17864;SDS011;9058;52.018;4.202;2023-06-26T13:28:32;4.45;;;1.88;;
17864;SDS011;9058;52.018;4.202;2023-06-26T13:30:59;9.82;;;2.00;;
17864;SDS011;9058;52.018;4.202;2023-06-26T13:33:26;6.22;;;2.13;;
17864;SDS011;9058;52.018;4.202;2023-06-26T13:35:54;5.10;;;1.65;;
17864;SDS011;9058;52.018;4.202;2023-06-26T13:38:21;9.68;;;2.20;;
17864;SDS011;9058;52.018;4.202;2023-06-26T13:40:49;9.88;;;2.67;;
17864;SDS011;9058;52.018;4.202;2023-06-26T13:43:16;9.98;;;2.92;;
17864;SDS011;9058;52.018;4.202;2023-06-26T13:45:42;4.22;;;1.92;;
17864;SDS011;9058;52.018;4.202;2023-06-26T13:48:08;3.08;;;1.70;;
17864;SDS011;9058;52.018;4.202;2023-06-26T13:50:35;5.00;;;1.70;;
17864;SDS011;9058;52.018;4.202;2023-06-26T13:53:03;6.55;;;1.90;;
17864;SDS011;9058;52.018;4.202;2023-06-26T13:55:29;11.48;;;2.03;;
17864;SDS011;9058;52.018;4.202;2023-06-26T13:57:56;4.95;;;1.92;;
17864;SDS011;9058;52.018;4.202;2023-06-26T14:00:23;4.03;;;1.70;;
17864;SDS011;9058;52.018;4.202;2023-06-26T14:02:50;5.43;;;1.98;;
17864;SDS011;9058;52.018;4.202;2023-06-26T14:05:17;5.57;;;2.03;;
17864;SDS011;9058;52.018;4.202;2023-06-26T14:07:43;8.68;;;1.88;;
17864;SDS011;9058;52.018;4.202;2023-06-26T14:10:11;7.32;;;1.65;;
17864;SDS011;9058;52.018;4.202;2023-06-26T14:12:38;8.57;;;1.85;;
17864;SDS011;9058;52.018;4.202;2023-06-26T14:15:05;4.40;;;1.88;;
17864;SDS011;9058;52.018;4.202;2023-06-26T14:17:32;7.97;;;2.10;;
17864;SDS011;9058;52.018;4.202;2023-06-26T14:19:59;3.75;;;1.73;;
17864;SDS011;9058;52.018;4.202;2023-06-26T14:22:27;5.32;;;1.83;;
17864;SDS011;9058;52.018;4.202;2023-06-26T14:24:54;4.57;;;1.85;;
17864;SDS011;9058;52.018;4.202;2023-06-26T14:27:23;5.05;;;1.77;;
17864;SDS011;9058;52.018;4.202;2023-06-26T14:29:50;4.40;;;1.92;;
17864;SDS011;9058;52.018;4.202;2023-06-26T14:32:16;6.38;;;1.70;;
17864;SDS011;9058;52.018;4.202;2023-06-26T14:34:43;4.30;;;1.83;;
17864;SDS011;9058;52.018;4.202;2023-06-26T14:37:09;3.55;;;1.80;;
17864;SDS011;9058;52.018;4.202;2023-06-26T14:39:37;3.92;;;1.42;;
17864;SDS011;9058;52.018;4.202;2023-06-26T14:42:04;3.17;;;1.55;;
17864;SDS011;9058;52.018;4.202;2023-06-26T14:44:32;4.88;;;1.70;;
17864;SDS011;9058;52.018;4.202;2023-06-26T14:46:59;3.70;;;1.83;;
17864;SDS011;9058;52.018;4.202;2023-06-26T14:49:26;8.90;;;1.95;;
17864;SDS011;9058;52.018;4.202;2023-06-26T14:51:53;8.52;;;1.80;;
17864;SDS011;9058;52.018;4.202;2023-06-26T14:54:20;6.43;;;1.60;;
17864;SDS011;9058;52.018;4.202;2023-06-26T14:56:47;6.70;;;1.70;;
17864;SDS011;9058;52.018;4.202;2023-06-26T14:59:14;3.63;;;1.30;;